createdAt,value
2023-01-03T00:02:53.779Z,100.00
2023-01-03T00:05:56.457Z,100.00
2023-01-03T00:09:00.411Z,100.00
2023-01-03T00:12:22.481Z,100.00
2023-01-03T00:15:27.048Z,100.00
2023-01-03T00:18:30.986Z,100.00
2023-01-03T00:21:33.902Z,100.00
2023-01-03T00:24:36.551Z,100.00
2023-01-03T00:27:39.141Z,100.00
2023-01-03T00:30:41.749Z,100.00
2023-01-03T00:33:45.706Z,100.00
2023-01-03T00:36:48.338Z,100.00
2023-01-03T00:39:50.957Z,100.00
2023-01-03T00:43:11.304Z,100.00
2023-01-03T00:46:15.453Z,100.00
2023-01-03T00:49:19.769Z,100.00
2023-01-03T00:52:22.315Z,100.00
2023-01-03T00:55:24.930Z,100.00
2023-01-03T00:58:30.513Z,100.00
2023-01-03T01:01:43.925Z,100.00
2023-01-03T01:04:50.046Z,100.00
2023-01-03T01:07:52.647Z,100.00
2023-01-03T01:11:04.529Z,100.00
2023-01-03T01:14:19.754Z,100.00
2023-01-03T01:17:23.102Z,100.00
2023-01-03T01:20:27.212Z,100.00
2023-01-03T01:23:29.824Z,100.00
2023-01-03T01:26:32.421Z,100.00
2023-01-03T01:29:35.062Z,100.00
2023-01-03T01:32:37.639Z,100.00
2023-01-03T01:35:41.629Z,100.00
2023-01-03T01:38:44.479Z,100.00
2023-01-03T01:42:06.077Z,100.00
2023-01-03T01:45:13.989Z,100.00
2023-01-03T01:48:16.825Z,100.00
2023-01-03T01:51:22.096Z,100.00
2023-01-03T01:54:25.475Z,100.00
2023-01-03T01:57:28.281Z,100.00
2023-01-03T02:00:31.394Z,100.00
2023-01-03T02:03:34.021Z,100.00
2023-01-03T02:06:40.666Z,100.00
2023-01-03T02:09:43.369Z,100.00
2023-01-03T02:13:10.112Z,100.00
2023-01-03T02:16:25.200Z,100.00
2023-01-03T02:20:01.743Z,100.00
2023-01-03T02:23:27.816Z,100.00
2023-01-03T02:26:59.003Z,100.00
2023-01-03T02:30:25.844Z,100.00
2023-01-03T02:33:34.249Z,100.00
2023-01-03T02:36:49.550Z,100.00
2023-01-03T02:40:00.952Z,100.00
2023-01-03T02:43:09.290Z,100.00
2023-01-03T02:46:18.959Z,100.00
2023-01-03T02:49:25.597Z,100.00
2023-01-03T02:52:31.644Z,100.00
2023-01-03T02:55:38.125Z,100.00
2023-01-03T02:58:43.667Z,100.00
2023-01-03T03:01:50.881Z,100.00
2023-01-03T03:04:57.749Z,100.00
2023-01-03T03:08:00.441Z,100.00
2023-01-03T03:11:20.738Z,100.00
2023-01-03T03:14:29.796Z,100.00
2023-01-03T03:17:33.939Z,100.00
2023-01-03T03:20:54.071Z,100.00
2023-01-03T03:24:21.022Z,100.00
2023-01-03T03:27:43.362Z,100.00
2023-01-03T03:30:49.541Z,100.00
2023-01-03T03:33:58.579Z,100.00
2023-01-03T03:37:05.132Z,100.00
2023-01-03T03:40:27.014Z,100.00
2023-01-03T03:43:47.499Z,100.00
2023-01-03T03:46:57.211Z,100.00
2023-01-03T03:50:05.471Z,100.00
2023-01-03T03:53:10.160Z,100.00
2023-01-03T03:56:17.491Z,100.00
2023-01-03T03:59:23.162Z,100.00
2023-01-03T04:02:28.872Z,100.00
2023-01-03T04:05:37.712Z,100.00
2023-01-03T04:08:40.428Z,100.00
2023-01-03T04:11:43.505Z,100.00
2023-01-03T04:14:46.124Z,100.00
2023-01-03T04:17:48.739Z,100.00
2023-01-03T04:20:52.748Z,100.00
2023-01-03T04:23:55.335Z,100.00
2023-01-03T04:26:57.938Z,100.00
2023-01-03T04:30:00.561Z,100.00
2023-01-03T04:33:06.056Z,100.00
2023-01-03T04:36:11.365Z,100.00
2023-01-03T04:39:14.509Z,100.00
2023-01-03T04:42:34.441Z,100.00
2023-01-03T04:45:37.159Z,100.00
2023-01-03T04:48:39.881Z,100.00
2023-01-03T04:51:43.791Z,100.00
2023-01-03T04:54:46.354Z,100.00
2023-01-03T04:57:48.922Z,100.00
2023-01-03T05:00:51.868Z,100.00
2023-01-03T05:03:59.736Z,100.00
2023-01-03T05:07:03.714Z,100.00
2023-01-03T05:10:07.190Z,100.00
2023-01-03T05:13:09.924Z,100.00
2023-01-03T05:16:14.528Z,100.00
2023-01-03T05:19:17.269Z,100.00
2023-01-03T05:22:38.672Z,100.00
2023-01-03T05:25:53.435Z,100.00
2023-01-03T05:28:56.528Z,100.00
2023-01-03T05:31:59.212Z,100.00
2023-01-03T05:35:01.861Z,100.00
2023-01-03T05:38:05.873Z,100.00
2023-01-03T05:41:08.484Z,100.00
2023-01-03T05:44:11.165Z,100.00
2023-01-03T05:47:13.764Z,100.00
2023-01-03T05:50:16.459Z,100.00
2023-01-03T05:53:20.406Z,100.00
2023-01-03T05:56:23.112Z,100.00
2023-01-03T05:59:26.920Z,100.00
2023-01-03T06:02:30.042Z,100.00
2023-01-03T06:05:32.752Z,100.00
2023-01-03T06:08:37.268Z,100.00
2023-01-03T06:11:40.419Z,100.00
2023-01-03T06:14:43.022Z,100.00
2023-01-03T06:17:58.734Z,100.00
2023-01-03T06:21:01.436Z,100.00
2023-01-03T06:24:06.277Z,100.00
2023-01-03T06:27:08.859Z,100.00
2023-01-03T06:30:12.524Z,100.00
2023-01-03T06:33:15.198Z,100.00
2023-01-03T06:36:21.036Z,100.00
2023-01-03T06:39:25.170Z,100.00
2023-01-03T06:42:46.107Z,100.00
2023-01-03T06:46:06.455Z,100.00
2023-01-03T06:49:29.897Z,100.00
2023-01-03T06:52:50.759Z,100.00
2023-01-03T06:55:57.384Z,100.00
2023-01-03T06:59:00.182Z,100.00
2023-01-03T07:02:02.918Z,100.00
2023-01-03T07:05:06.308Z,100.00
2023-01-03T07:08:08.867Z,100.00
2023-01-03T07:11:12.868Z,100.00
2023-01-03T07:14:14.558Z,100.00
2023-01-03T07:17:17.932Z,100.00
2023-01-03T07:20:20.547Z,100.00
2023-01-03T07:23:23.144Z,100.00
2023-01-03T07:26:27.126Z,100.00
2023-01-03T07:29:29.716Z,100.00
2023-01-03T07:32:32.321Z,100.00
2023-01-03T07:35:35.695Z,100.00
2023-01-03T07:38:38.853Z,100.00
2023-01-03T07:42:00.143Z,100.00
2023-01-03T07:45:02.760Z,100.00
2023-01-03T07:48:05.766Z,100.00
2023-01-03T07:51:09.947Z,100.00
2023-01-03T07:54:12.546Z,100.00
2023-01-03T07:57:16.873Z,100.00
2023-01-03T08:00:19.885Z,100.00
2023-01-03T08:03:22.493Z,100.00
2023-01-03T08:06:25.692Z,100.00
2023-01-03T08:09:45.992Z,100.00
2023-01-03T08:13:10.063Z,100.00
2023-01-03T08:16:14.765Z,100.00
2023-01-03T08:19:18.394Z,100.00
2023-01-03T08:22:20.978Z,100.00
2023-01-03T08:25:23.567Z,100.00
2023-01-03T08:28:27.526Z,100.00
2023-01-03T08:31:35.414Z,100.00
2023-01-03T08:34:41.745Z,100.00
2023-01-03T08:37:45.506Z,100.00
2023-01-03T08:40:49.034Z,100.00
2023-01-03T08:43:54.394Z,100.00
2023-01-03T08:47:00.326Z,100.00
2023-01-03T08:50:03.755Z,100.00
2023-01-03T08:53:06.382Z,100.00
2023-01-03T08:56:09.356Z,100.00
2023-01-03T08:59:13.300Z,100.00
2023-01-03T09:02:16.044Z,100.00
2023-01-03T09:05:18.901Z,100.00
2023-01-03T09:08:21.520Z,100.00
2023-01-03T09:11:24.144Z,100.00
2023-01-03T09:14:28.076Z,100.00
2023-01-03T09:17:30.726Z,100.00
2023-01-03T09:20:33.305Z,100.00
2023-01-03T09:23:37.531Z,100.00
2023-01-03T09:26:40.175Z,100.00
2023-01-03T09:29:44.120Z,100.00
2023-01-03T09:32:46.881Z,100.00
2023-01-03T09:35:49.556Z,100.00
2023-01-03T09:38:52.130Z,100.00
2023-01-03T09:42:08.659Z,100.00
2023-01-03T09:45:16.759Z,100.00
2023-01-03T09:48:26.538Z,100.00
2023-01-03T09:51:48.832Z,100.00
2023-01-03T09:55:09.125Z,100.00
2023-01-03T09:58:33.058Z,100.00
2023-01-03T10:02:02.399Z,100.00
2023-01-03T10:05:28.489Z,100.00
2023-01-03T10:08:39.769Z,100.00
2023-01-03T10:11:53.468Z,100.00
2023-01-03T10:15:08.542Z,100.00
2023-01-03T10:18:27.896Z,100.00
2023-01-03T10:21:42.116Z,100.00
2023-01-03T10:24:47.490Z,100.00
2023-01-03T10:27:54.614Z,100.00
2023-01-03T10:31:11.084Z,100.00
2023-01-03T10:34:15.063Z,100.00
2023-01-03T10:37:19.297Z,100.00
2023-01-03T10:40:22.171Z,100.00
2023-01-03T10:43:31.330Z,99.55
2023-01-03T10:46:34.097Z,97.24
2023-01-03T10:49:38.107Z,96.31
2023-01-03T10:52:42.560Z,95.26
2023-01-03T10:55:48.241Z,94.10
2023-01-03T10:58:54.099Z,91.54
2023-01-03T11:02:00.283Z,90.29
2023-01-03T11:05:12.372Z,84.64
2023-01-03T11:08:22.427Z,82.19
2023-01-03T11:11:29.910Z,77.54
2023-01-03T11:14:32.597Z,76.72
2023-01-03T11:17:35.593Z,73.07
2023-01-03T11:20:45.854Z,70.97
2023-01-03T11:24:02.551Z,66.04
2023-01-03T11:27:18.135Z,65.12
2023-01-03T11:30:30.491Z,66.70
2023-01-03T11:33:49.452Z,66.08
2023-01-03T11:37:02.375Z,70.32
2023-01-03T11:40:17.511Z,73.40
2023-01-03T11:43:32.367Z,72.60
2023-01-03T11:46:50.146Z,71.88
2023-01-03T11:50:12.522Z,72.24
2023-01-03T11:53:30.804Z,72.09
2023-01-03T11:56:37.879Z,71.89
2023-01-03T11:59:53.564Z,72.18
2023-01-03T12:03:24.068Z,72.93
2023-01-03T12:06:35.492Z,70.38
2023-01-03T12:09:48.853Z,73.49
2023-01-03T12:13:11.512Z,75.06
2023-01-03T12:16:23.369Z,73.37
2023-01-03T12:19:34.603Z,75.37
2023-01-03T12:22:40.044Z,75.07
2023-01-03T12:25:50.480Z,73.04
2023-01-03T12:29:01.173Z,70.11
2023-01-03T12:32:11.192Z,72.40
2023-01-03T12:35:25.418Z,70.39
2023-01-03T12:38:31.697Z,72.55
2023-01-03T12:41:44.096Z,71.20
2023-01-03T12:44:48.867Z,71.17
2023-01-03T12:47:57.704Z,72.88
2023-01-03T12:51:00.371Z,70.15
2023-01-03T12:54:17.025Z,67.09
2023-01-03T12:57:55.060Z,66.46
2023-01-03T13:01:00.261Z,67.58
2023-01-03T13:04:15.307Z,64.20
2023-01-03T13:07:26.458Z,62.54
2023-01-03T13:10:34.538Z,62.03
2023-01-03T13:13:38.550Z,61.65
2023-01-03T13:16:45.392Z,66.11
2023-01-03T13:19:58.077Z,69.04
2023-01-03T13:23:01.299Z,70.52
2023-01-03T13:26:24.895Z,73.57
2023-01-03T13:29:54.906Z,74.29
2023-01-03T13:33:07.990Z,74.50
2023-01-03T13:36:10.895Z,77.01
2023-01-03T13:39:32.212Z,77.94
2023-01-03T13:42:38.452Z,75.82
2023-01-03T13:46:02.514Z,76.51
2023-01-03T13:49:07.872Z,75.27
2023-01-03T13:52:37.584Z,77.15
2023-01-03T13:55:47.888Z,78.27
2023-01-03T13:58:55.967Z,80.62
2023-01-03T14:02:18.646Z,82.01
2023-01-03T14:05:50.882Z,80.80
2023-01-03T14:09:22.717Z,82.77
2023-01-03T14:13:10.050Z,82.02
2023-01-03T14:16:20.178Z,81.14
2023-01-03T14:19:29.031Z,81.80
2023-01-03T14:22:38.006Z,80.91
2023-01-03T14:25:42.413Z,80.65
2023-01-03T14:28:49.212Z,82.45
2023-01-03T14:31:55.743Z,83.60
2023-01-03T14:34:59.866Z,84.71
2023-01-03T14:38:06.689Z,86.13
2023-01-03T14:41:27.386Z,87.05
2023-01-03T14:44:30.970Z,87.28
2023-01-03T14:47:38.047Z,86.90
2023-01-03T14:50:43.588Z,87.75
2023-01-03T14:53:46.825Z,88.94
2023-01-03T14:56:49.934Z,89.14
2023-01-03T14:59:54.415Z,89.77
2023-01-03T15:02:57.941Z,89.19
2023-01-03T15:06:02.319Z,90.05
2023-01-03T15:09:22.308Z,90.01
2023-01-03T15:12:25.115Z,91.12
2023-01-03T15:15:29.802Z,91.46
2023-01-03T15:18:35.081Z,91.04
2023-01-03T15:21:39.313Z,91.10
2023-01-03T15:24:44.882Z,91.59
2023-01-03T15:27:49.975Z,91.68
2023-01-03T15:30:53.795Z,91.17
2023-01-03T15:34:01.355Z,90.41
2023-01-03T15:37:12.974Z,88.84
2023-01-03T15:40:15.783Z,89.91
2023-01-03T15:43:23.568Z,89.15
2023-01-03T15:46:28.538Z,90.26
2023-01-03T15:49:37.381Z,92.39
2023-01-03T15:52:41.331Z,93.16
2023-01-03T15:55:44.167Z,95.97
2023-01-03T15:58:47.871Z,95.67
2023-01-03T16:01:50.768Z,94.89
2023-01-03T16:04:54.438Z,96.37
2023-01-03T16:07:58.404Z,96.16
2023-01-03T16:11:03.774Z,97.21
2023-01-03T16:14:14.299Z,96.12
2023-01-03T16:17:24.670Z,96.26
2023-01-03T16:20:34.242Z,96.49
2023-01-03T16:23:38.243Z,96.98
2023-01-03T16:26:40.833Z,97.00
2023-01-03T16:29:43.458Z,97.17
2023-01-03T16:32:46.089Z,97.14
2023-01-03T16:35:48.946Z,97.78
2023-01-03T16:38:52.847Z,98.37
2023-01-03T16:42:15.181Z,98.97
2023-01-03T16:45:18.028Z,99.24
2023-01-03T16:48:24.217Z,100.00
2023-01-03T16:51:29.137Z,100.00
2023-01-03T16:54:33.100Z,100.00
2023-01-03T16:57:35.677Z,99.68
2023-01-03T17:00:38.279Z,99.64
2023-01-03T17:03:42.265Z,98.93
2023-01-03T17:06:45.738Z,99.53
2023-01-03T17:09:51.898Z,100.00
2023-01-03T17:12:54.892Z,100.00
2023-01-03T17:15:58.609Z,100.00
2023-01-03T17:19:01.209Z,100.00
2023-01-03T17:22:03.969Z,100.00
2023-01-03T17:25:11.704Z,100.00
2023-01-03T17:28:14.376Z,100.00
2023-01-03T17:31:19.212Z,100.00
2023-01-03T17:34:25.264Z,100.00
2023-01-03T17:37:27.976Z,100.00
2023-01-03T17:40:34.252Z,100.00
2023-01-03T17:43:37.232Z,100.00
2023-01-03T17:46:57.465Z,100.00
2023-01-03T17:50:01.107Z,100.00
2023-01-03T17:53:03.830Z,100.00
2023-01-03T17:56:08.047Z,100.00
2023-01-03T17:59:14.232Z,100.00
2023-01-03T18:02:19.545Z,100.00
2023-01-03T18:05:27.837Z,100.00
2023-01-03T18:08:30.637Z,100.00
2023-01-03T18:11:34.884Z,100.00
2023-01-03T18:14:37.455Z,100.00
2023-01-03T18:17:40.086Z,100.00
2023-01-03T18:20:42.688Z,100.00
2023-01-03T18:23:46.122Z,100.00
2023-01-03T18:26:53.365Z,100.00
2023-01-03T18:29:56.130Z,100.00
2023-01-03T18:32:58.753Z,100.00
2023-01-03T18:36:01.725Z,100.00
2023-01-03T18:39:07.580Z,100.00
2023-01-03T18:42:31.443Z,100.00
2023-01-03T18:45:34.244Z,100.00
2023-01-03T18:48:36.817Z,100.00
2023-01-03T18:51:39.445Z,100.00
2023-01-03T18:54:42.045Z,100.00
2023-01-03T18:57:47.349Z,100.00
2023-01-03T19:00:49.945Z,100.00
2023-01-03T19:03:52.692Z,100.00
2023-01-03T19:06:55.627Z,100.00
2023-01-03T19:09:58.822Z,100.00
2023-01-03T19:13:02.834Z,100.00
2023-01-03T19:16:06.232Z,100.00
2023-01-03T19:19:08.993Z,100.00
2023-01-03T19:22:23.529Z,100.00
2023-01-03T19:25:29.626Z,100.00
2023-01-03T19:28:33.654Z,100.00
2023-01-03T19:31:43.349Z,100.00
2023-01-03T19:34:46.077Z,100.00
2023-01-03T19:37:48.730Z,100.00
2023-01-03T19:40:51.309Z,100.00
2023-01-03T19:43:55.222Z,100.00
2023-01-03T19:46:57.921Z,100.00
2023-01-03T19:50:11.481Z,100.00
2023-01-03T19:53:14.393Z,100.00
2023-01-03T19:56:23.338Z,100.00
2023-01-03T19:59:30.131Z,100.00
2023-01-03T20:02:39.102Z,100.00
2023-01-03T20:05:42.126Z,100.00
2023-01-03T20:08:44.910Z,100.00
2023-01-03T20:11:52.702Z,100.00
2023-01-03T20:15:02.943Z,100.00
2023-01-03T20:18:24.046Z,100.00
2023-01-03T20:21:31.770Z,100.00
2023-01-03T20:24:34.875Z,100.00
2023-01-03T20:27:44.346Z,100.00
2023-01-03T20:30:48.875Z,100.00
2023-01-03T20:33:52.062Z,100.00
2023-01-03T20:36:55.692Z,100.00
2023-01-03T20:39:58.298Z,100.00
2023-01-03T20:43:02.183Z,100.00
2023-01-03T20:46:06.627Z,100.00
2023-01-03T20:49:15.812Z,100.00
2023-01-03T20:52:19.100Z,100.00
2023-01-03T20:55:23.702Z,100.00
2023-01-03T20:58:27.434Z,100.00
2023-01-03T21:01:32.037Z,100.00
2023-01-03T21:04:34.691Z,100.00
2023-01-03T21:07:51.197Z,100.00
2023-01-03T21:10:53.847Z,100.00
2023-01-03T21:13:57.459Z,100.00
2023-01-03T21:17:01.422Z,100.00
2023-01-03T21:20:04.138Z,100.00
2023-01-03T21:23:06.799Z,100.00
2023-01-03T21:26:09.364Z,100.00
2023-01-03T21:29:12.609Z,100.00
2023-01-03T21:32:16.728Z,100.00
2023-01-03T21:35:20.977Z,100.00
2023-01-03T21:38:23.757Z,100.00
2023-01-03T21:41:28.174Z,100.00
2023-01-03T21:44:30.772Z,100.00
2023-01-03T21:47:34.753Z,100.00
2023-01-03T21:50:39.541Z,100.00
2023-01-03T21:53:42.967Z,100.00
2023-01-03T21:56:46.910Z,100.00
2023-01-03T21:59:49.716Z,100.00
2023-01-03T22:03:11.262Z,100.00
2023-01-03T22:06:15.095Z,100.00
2023-01-03T22:09:31.592Z,100.00
2023-01-03T22:12:34.243Z,100.00
2023-01-03T22:15:38.018Z,100.00
2023-01-03T22:18:42.336Z,100.00
2023-01-03T22:21:44.942Z,100.00
2023-01-03T22:24:47.554Z,100.00
2023-01-03T22:27:50.642Z,100.00
2023-01-03T22:30:53.264Z,100.00
2023-01-03T22:33:57.183Z,100.00
2023-01-03T22:36:59.815Z,100.00
2023-01-03T22:40:02.444Z,100.00
2023-01-03T22:43:05.307Z,100.00
2023-01-03T22:46:08.528Z,100.00
2023-01-03T22:49:12.689Z,100.00
2023-01-03T22:52:15.288Z,100.00
2023-01-03T22:55:18.079Z,100.00
2023-01-03T22:58:20.660Z,100.00
2023-01-03T23:01:27.518Z,100.00
2023-01-03T23:04:32.275Z,100.00
2023-01-03T23:07:34.974Z,100.00
2023-01-03T23:10:37.624Z,100.00
2023-01-03T23:13:39.241Z,100.00
2023-01-03T23:16:42.058Z,100.00
2023-01-03T23:19:46.068Z,100.00
2023-01-03T23:22:52.690Z,100.00
2023-01-03T23:25:58.256Z,100.00
2023-01-03T23:29:01.459Z,100.00
2023-01-03T23:32:04.212Z,100.00
2023-01-03T23:35:09.169Z,100.00
2023-01-03T23:38:11.785Z,100.00
2023-01-03T23:41:14.401Z,100.00
2023-01-03T23:44:17.192Z,100.00
2023-01-03T23:47:19.764Z,100.00
2023-01-03T23:50:24.054Z,100.00
2023-01-03T23:53:26.662Z,100.00
2023-01-03T23:56:29.237Z,100.00
2023-01-03T23:59:31.956Z,100.00
